Eunice, LA

8:18 AM CDT on August 26, 2016 (GMT -0500)
Cross D Ranch | | Change Station
Active Advisory: Flood Warning

Elev 49 ft 30.44 °N, 92.33 °W | Updated 19 seconds ago

Overcast
Overcast
76.4 °F
Feels Like 76 °F
N
3.0
Wind Variable Wind from NE
Gusts 5.0 mph

Today
High -- | Low -- °F
--% Chance of Precip.
Yesterday
High -- | Low -- °F
Precip. -- in
Pressure 30.04 in
Visibility 1.8 miles
Clouds Overcast 300 ft
Heat Index 76 °F
Dew Point 76 °F
Humidity 98%
Rainfall 0.00 in
Snow Depth Not available.
6:43 AM 7:38 PM
Waning Crescent, 34% visible
METAR KOPL 261255Z AUTO 06004KT 1 3/4SM OVC003 24/24 A3004 RMK AO2 LTG DSNT SE T02400236 PWINO
Pressure 30.04 in
Visibility 1.8 miles
Clouds Overcast 300 ft
Heat Index 76 °F
Dew Point 76 °F
Humidity 98%
Rainfall 0.00 in
Snow Depth Not available.
6:43 AM 7:38 PM
Waning Crescent, 34% visible
METAR KOPL 261255Z AUTO 06004KT 1 3/4SM OVC003 24/24 A3004 RMK AO2 LTG DSNT SE T02400236 PWINO

10-Day Weather Forecast

Almanac

Astronomy

Aug. 26, 2016 Rise Set
Actual Time
Civil Twilight
Nautical Twilight
Astronomical Twilight
Moon
Length of Visible Light
Length of Day
Tomorrow will be .
, % of the Moon is Illuminated

Today's Extremes

State Highs State Lows

Community

WunderPhotos

Upload Photos

1,935,084 photos uploaded!

WunderBlog® & News

Nearby

Air Quality

  Air Quality AQ Index Pollutant
Not available.

Snow Depth

Station Depth Elevation

Earthquake Activity

City Distance Mag. Time & Date
Minimum magnitude displayed is 2.5.

Coastal Water Temperatures

Place Temperature

Stations

Nearby Weather Stations

Station Location Temp. Windchill Dew Point Humidity Wind Precip. Elev Updated Type
                   

Watches & Warnings

Flood Warning
Issued: 8:27 PM CDT Aug. 25, 2016 – National Weather Service

The Flood Warning continues for
The Bayou Vermilion near Carencro.
* Until Saturday morning... or until the warning is cancelled.
* At 7:00 PM Thursday the stage was 17.5 feet.
* Minor flooding is occurring and minor flooding is forecast.
* Flood stage is 17.0 feet.
* Forecast... the river will continue to fall to below flood stage by
tomorrow evening.


Lat... Lon 3026 9200 3028 9193 3031 9194 3032 9189
      3046 9198 3046 9201